sensor_id;sensor_type;location;lat;lon;timestamp;pressure;altitude;pressure_sealevel;temperature;humidity
15405;BME280;7801;48.124;11.590;2023-05-07T00:02:07;95386.53;;;15.22;90.67
15405;BME280;7801;48.124;11.590;2023-05-07T00:04:33;95380.09;;;15.23;90.76
15405;BME280;7801;48.124;11.590;2023-05-07T00:07:02;95380.91;;;15.15;90.86
15405;BME280;7801;48.124;11.590;2023-05-07T00:09:27;95378.94;;;14.94;92.02
15405;BME280;7801;48.124;11.590;2023-05-07T00:11:53;95377.06;;;14.95;92.01
15405;BME280;7801;48.124;11.590;2023-05-07T00:14:18;95383.03;;;14.92;92.10
15405;BME280;7801;48.124;11.590;2023-05-07T00:16:44;95383.50;;;14.85;92.24
15405;BME280;7801;48.124;11.590;2023-05-07T00:19:10;95381.97;;;14.75;92.68
15405;BME280;7801;48.124;11.590;2023-05-07T00:21:35;95388.06;;;14.76;92.66
15405;BME280;7801;48.124;11.590;2023-05-07T00:24:01;95380.53;;;14.87;92.30
15405;BME280;7801;48.124;11.590;2023-05-07T00:26:26;95379.75;;;14.86;92.41
15405;BME280;7801;48.124;11.590;2023-05-07T00:28:51;95385.72;;;14.83;92.21
15405;BME280;7801;48.124;11.590;2023-05-07T00:31:17;95373.78;;;14.81;92.34
15405;BME280;7801;48.124;11.590;2023-05-07T00:33:42;95375.50;;;14.85;92.03
15405;BME280;7801;48.124;11.590;2023-05-07T00:36:07;95372.81;;;14.85;91.98
15405;BME280;7801;48.124;11.590;2023-05-07T00:38:33;95371.72;;;14.77;92.24
15405;BME280;7801;48.124;11.590;2023-05-07T00:40:58;95368.16;;;14.65;92.90
15405;BME280;7801;48.124;11.590;2023-05-07T00:43:23;95370.03;;;14.73;93.12
15405;BME280;7801;48.124;11.590;2023-05-07T00:45:49;95372.09;;;14.67;93.12
15405;BME280;7801;48.124;11.590;2023-05-07T00:48:15;95368.75;;;14.79;92.70
15405;BME280;7801;48.124;11.590;2023-05-07T00:50:41;95372.53;;;14.78;92.78
15405;BME280;7801;48.124;11.590;2023-05-07T00:53:06;95378.47;;;14.84;92.55
15405;BME280;7801;48.124;11.590;2023-05-07T00:55:32;95369.22;;;14.81;92.56
15405;BME280;7801;48.124;11.590;2023-05-07T00:57:58;95374.72;;;14.85;92.84
15405;BME280;7801;48.124;11.590;2023-05-07T01:00:23;95361.50;;;14.88;92.51
15405;BME280;7801;48.124;11.590;2023-05-07T01:02:50;95377.22;;;14.81;92.93
15405;BME280;7801;48.124;11.590;2023-05-07T01:05:17;95375.97;;;14.78;92.77
15405;BME280;7801;48.124;11.590;2023-05-07T01:07:43;95375.50;;;14.85;92.55
15405;BME280;7801;48.124;11.590;2023-05-07T01:10:10;95377.88;;;14.78;92.80
15405;BME280;7801;48.124;11.590;2023-05-07T01:12:37;95369.38;;;14.76;92.87
15405;BME280;7801;48.124;11.590;2023-05-07T01:15:03;95373.94;;;14.84;92.47
15405;BME280;7801;48.124;11.590;2023-05-07T01:17:34;95372.03;;;14.85;92.20
15405;BME280;7801;48.124;11.590;2023-05-07T01:19:59;95378.47;;;14.92;91.61
15405;BME280;7801;48.124;11.590;2023-05-07T01:22:30;95374.72;;;14.85;91.91
15405;BME280;7801;48.124;11.590;2023-05-07T01:24:57;95371.72;;;14.77;92.17
15405;BME280;7801;48.124;11.590;2023-05-07T01:27:24;95376.81;;;14.62;92.42
15405;BME280;7801;48.124;11.590;2023-05-07T01:29:50;95370.38;;;14.63;92.67
15405;BME280;7801;48.124;11.590;2023-05-07T01:32:16;95371.78;;;14.69;92.46
15405;BME280;7801;48.124;11.590;2023-05-07T01:34:44;95365.03;;;14.63;92.68
15405;BME280;7801;48.124;11.590;2023-05-07T01:37:12;95362.81;;;14.65;92.81
15405;BME280;7801;48.124;11.590;2023-05-07T01:39:39;95356.38;;;14.57;92.95
15405;BME280;7801;48.124;11.590;2023-05-07T01:42:05;95356.06;;;14.59;93.14
15405;BME280;7801;48.124;11.590;2023-05-07T01:44:30;95361.41;;;14.59;93.10
15405;BME280;7801;48.124;11.590;2023-05-07T01:46:57;95358.94;;;14.54;93.37
15405;BME280;7801;48.124;11.590;2023-05-07T01:49:22;95360.50;;;14.55;93.37
15405;BME280;7801;48.124;11.590;2023-05-07T01:51:47;95360.81;;;14.44;93.91
15405;BME280;7801;48.124;11.590;2023-05-07T01:54:13;95355.00;;;14.42;94.03
15405;BME280;7801;48.124;11.590;2023-05-07T01:56:39;95349.03;;;14.46;94.07
15405;BME280;7801;48.124;11.590;2023-05-07T01:59:05;95355.94;;;14.47;93.93
15405;BME280;7801;48.124;11.590;2023-05-07T02:01:30;95359.25;;;14.52;93.77
15405;BME280;7801;48.124;11.590;2023-05-07T02:03:55;95348.72;;;14.47;93.88
15405;BME280;7801;48.124;11.590;2023-05-07T02:06:21;95358.78;;;14.41;94.31
15405;BME280;7801;48.124;11.590;2023-05-07T02:08:46;95363.50;;;14.44;94.36
15405;BME280;7801;48.124;11.590;2023-05-07T02:11:12;95361.88;;;14.61;93.66
15405;BME280;7801;48.124;11.590;2023-05-07T02:13:37;95361.09;;;14.60;93.16
15405;BME280;7801;48.124;11.590;2023-05-07T02:16:03;95360.97;;;14.48;93.67
15405;BME280;7801;48.124;11.590;2023-05-07T02:18:28;95358.78;;;14.50;93.52
15405;BME280;7801;48.124;11.590;2023-05-07T02:20:54;95354.66;;;14.61;93.22
15405;BME280;7801;48.124;11.590;2023-05-07T02:23:19;95361.13;;;14.52;93.24
15405;BME280;7801;48.124;11.590;2023-05-07T02:25:44;95355.59;;;14.57;93.02
15405;BME280;7801;48.124;11.590;2023-05-07T02:28:11;95360.66;;;14.50;92.85
15405;BME280;7801;48.124;11.590;2023-05-07T02:30:37;95361.91;;;14.43;93.25
15405;BME280;7801;48.124;11.590;2023-05-07T02:33:02;95366.63;;;14.29;93.89
15405;BME280;7801;48.124;11.590;2023-05-07T02:35:27;95357.53;;;14.13;94.15
15405;BME280;7801;48.124;11.590;2023-05-07T02:37:53;95365.22;;;14.06;94.69
15405;BME280;7801;48.124;11.590;2023-05-07T02:40:18;95367.56;;;14.07;94.64
15405;BME280;7801;48.124;11.590;2023-05-07T02:42:44;95358.59;;;14.21;93.93
15405;BME280;7801;48.124;11.590;2023-05-07T02:45:09;95363.31;;;14.06;94.43
15405;BME280;7801;48.124;11.590;2023-05-07T02:47:35;95369.28;;;14.03;94.50
15405;BME280;7801;48.124;11.590;2023-05-07T02:50:00;95357.38;;;13.92;94.96
15405;BME280;7801;48.124;11.590;2023-05-07T02:52:25;95362.69;;;14.01;94.89
15405;BME280;7801;48.124;11.590;2023-05-07T02:54:51;95358.44;;;13.83;95.43
15405;BME280;7801;48.124;11.590;2023-05-07T02:57:16;95361.91;;;13.83;95.42
15405;BME280;7801;48.124;11.590;2023-05-07T02:59:42;95367.87;;;13.89;95.36
15405;BME280;7801;48.124;11.590;2023-05-07T03:02:07;95365.66;;;13.99;94.86
15405;BME280;7801;48.124;11.590;2023-05-07T03:04:33;95367.72;;;14.11;94.09
15405;BME280;7801;48.124;11.590;2023-05-07T03:06:58;95359.56;;;14.07;94.27
15405;BME280;7801;48.124;11.590;2023-05-07T03:09:23;95358.16;;;14.01;94.20
15405;BME280;7801;48.124;11.590;2023-05-07T03:11:49;95365.97;;;13.98;94.55
15405;BME280;7801;48.124;11.590;2023-05-07T03:14:14;95364.56;;;14.00;94.29
15405;BME280;7801;48.124;11.590;2023-05-07T03:16:39;95362.38;;;13.94;94.22
15405;BME280;7801;48.124;11.590;2023-05-07T03:19:05;95361.75;;;13.97;94.18
15405;BME280;7801;48.124;11.590;2023-05-07T03:21:30;95365.19;;;13.80;94.55
15405;BME280;7801;48.124;11.590;2023-05-07T03:23:59;95362.06;;;13.69;95.12
15405;BME280;7801;48.124;11.590;2023-05-07T03:26:24;95355.28;;;13.72;95.20
15405;BME280;7801;48.124;11.590;2023-05-07T03:28:50;95348.41;;;13.80;94.97
15405;BME280;7801;48.124;11.590;2023-05-07T03:31:15;95350.91;;;13.76;95.09
15405;BME280;7801;48.124;11.590;2023-05-07T03:33:55;95351.84;;;13.63;95.61
15405;BME280;7801;48.124;11.590;2023-05-07T03:36:21;95345.56;;;13.76;95.06
15405;BME280;7801;48.124;11.590;2023-05-07T03:38:48;95353.28;;;13.69;95.56
15405;BME280;7801;48.124;11.590;2023-05-07T03:41:14;95352.03;;;13.84;94.60
15405;BME280;7801;48.124;11.590;2023-05-07T03:43:39;95355.00;;;13.91;94.28
15405;BME280;7801;48.124;11.590;2023-05-07T03:46:04;95347.78;;;13.83;94.54
15405;BME280;7801;48.124;11.590;2023-05-07T03:48:30;95356.12;;;13.90;93.97
15405;BME280;7801;48.124;11.590;2023-05-07T03:50:56;95348.72;;;13.87;94.25
15405;BME280;7801;48.124;11.590;2023-05-07T03:53:22;95354.22;;;13.82;94.75
15405;BME280;7801;48.124;11.590;2023-05-07T03:55:47;95359.06;;;13.80;94.62
15405;BME280;7801;48.124;11.590;2023-05-07T03:58:12;95355.75;;;13.74;94.62
15405;BME280;7801;48.124;11.590;2023-05-07T04:00:38;95354.06;;;13.87;94.46
15405;BME280;7801;48.124;11.590;2023-05-07T04:03:05;95353.13;;;13.83;94.59
15405;BME280;7801;48.124;11.590;2023-05-07T04:05:30;95353.41;;;13.72;94.99
15405;BME280;7801;48.124;11.590;2023-05-07T04:07:58;95362.53;;;13.71;94.91
15405;BME280;7801;48.124;11.590;2023-05-07T04:10:23;95370.19;;;13.73;95.09
15405;BME280;7801;48.124;11.590;2023-05-07T04:12:48;95374.44;;;13.83;94.25
15405;BME280;7801;48.124;11.590;2023-05-07T04:15:14;95372.13;;;13.90;94.14
15405;BME280;7801;48.124;11.590;2023-05-07T04:17:39;95375.41;;;13.87;93.95
15405;BME280;7801;48.124;11.590;2023-05-07T04:20:08;95373.38;;;13.92;93.62
15405;BME280;7801;48.124;11.590;2023-05-07T04:22:34;95371.62;;;13.88;93.83
15405;BME280;7801;48.124;11.590;2023-05-07T04:24:59;95382.00;;;13.89;93.74
15405;BME280;7801;48.124;11.590;2023-05-07T04:27:25;95385.13;;;13.83;94.19
15405;BME280;7801;48.124;11.590;2023-05-07T04:29:51;95385.91;;;13.83;94.26
15405;BME280;7801;48.124;11.590;2023-05-07T04:32:20;95389.50;;;13.79;94.32
15405;BME280;7801;48.124;11.590;2023-05-07T04:34:46;95385.28;;;13.86;94.33
15405;BME280;7801;48.124;11.590;2023-05-07T04:37:11;95387.94;;;13.86;93.88
15405;BME280;7801;48.124;11.590;2023-05-07T04:39:38;95386.03;;;13.69;94.96
15405;BME280;7801;48.124;11.590;2023-05-07T04:42:05;95388.88;;;13.82;94.64
15405;BME280;7801;48.124;11.590;2023-05-07T04:44:34;95383.53;;;13.82;94.38
15405;BME280;7801;48.124;11.590;2023-05-07T04:46:59;95383.69;;;13.94;94.04
15405;BME280;7801;48.124;11.590;2023-05-07T04:49:25;95381.19;;;13.97;93.84
15405;BME280;7801;48.124;11.590;2023-05-07T04:51:50;95381.69;;;14.08;93.61
15405;BME280;7801;48.124;11.590;2023-05-07T04:54:16;95381.53;;;14.04;93.60
15405;BME280;7801;48.124;11.590;2023-05-07T04:56:41;95382.78;;;13.98;93.78
15405;BME280;7801;48.124;11.590;2023-05-07T04:59:06;95382.94;;;14.02;93.93
15405;BME280;7801;48.124;11.590;2023-05-07T05:01:32;95387.78;;;14.00;93.63
15405;BME280;7801;48.124;11.590;2023-05-07T05:03:58;95392.34;;;13.99;93.61
15405;BME280;7801;48.124;11.590;2023-05-07T05:06:26;95386.22;;;13.99;93.59
15405;BME280;7801;48.124;11.590;2023-05-07T05:08:51;95398.31;;;14.05;93.58
15405;BME280;7801;48.124;11.590;2023-05-07T05:11:17;95392.81;;;14.01;93.56
15405;BME280;7801;48.124;11.590;2023-05-07T05:13:42;95402.09;;;14.13;93.16
15405;BME280;7801;48.124;11.590;2023-05-07T05:16:07;95396.91;;;14.07;93.17
15405;BME280;7801;48.124;11.590;2023-05-07T05:18:33;95395.31;;;13.98;93.69
15405;BME280;7801;48.124;11.590;2023-05-07T05:20:58;95399.72;;;14.02;93.78
15405;BME280;7801;48.124;11.590;2023-05-07T05:23:23;95392.34;;;13.99;94.22
15405;BME280;7801;48.124;11.590;2023-05-07T05:25:48;95389.06;;;14.11;94.11
15405;BME280;7801;48.124;11.590;2023-05-07T05:28:14;95389.69;;;14.08;93.79
15405;BME280;7801;48.124;11.590;2023-05-07T05:30:39;95390.97;;;14.10;93.63
15405;BME280;7801;48.124;11.590;2023-05-07T05:33:05;95390.97;;;14.10;93.27
15405;BME280;7801;48.124;11.590;2023-05-07T05:35:30;95398.78;;;14.07;93.70
15405;BME280;7801;48.124;11.590;2023-05-07T05:37:56;95389.22;;;14.06;94.00
15405;BME280;7801;48.124;11.590;2023-05-07T05:40:22;95393.47;;;14.24;93.45
15405;BME280;7801;48.124;11.590;2023-05-07T05:42:47;95398.66;;;14.12;94.22
15405;BME280;7801;48.124;11.590;2023-05-07T05:45:12;95404.28;;;14.10;94.27
15405;BME280;7801;48.124;11.590;2023-05-07T05:47:38;95401.31;;;14.12;94.58
15405;BME280;7801;48.124;11.590;2023-05-07T05:50:05;95396.91;;;14.07;94.74
15405;BME280;7801;48.124;11.590;2023-05-07T05:52:31;95399.41;;;14.21;94.64
15405;BME280;7801;48.124;11.590;2023-05-07T05:54:56;95397.06;;;14.28;94.58
15405;BME280;7801;48.124;11.590;2023-05-07T05:57:22;95398.94;;;14.36;94.44
15405;BME280;7801;48.124;11.590;2023-05-07T05:59:47;95393.31;;;14.47;94.35
15405;BME280;7801;48.124;11.590;2023-05-07T06:02:12;95393.94;;;14.52;94.10
15405;BME280;7801;48.124;11.590;2023-05-07T06:04:38;95392.53;;;14.55;93.94
15405;BME280;7801;48.124;11.590;2023-05-07T06:07:03;95393.94;;;14.61;94.20
15405;BME280;7801;48.124;11.590;2023-05-07T06:09:28;95402.41;;;14.63;94.11
15405;BME280;7801;48.124;11.590;2023-05-07T06:11:54;95389.22;;;14.66;94.51
15405;BME280;7801;48.124;11.590;2023-05-07T06:14:19;95396.56;;;14.78;93.95
15405;BME280;7801;48.124;11.590;2023-05-07T06:16:44;95388.69;;;14.90;93.78
15405;BME280;7801;48.124;11.590;2023-05-07T06:19:10;95386.50;;;14.92;93.97
15405;BME280;7801;48.124;11.590;2023-05-07T06:21:35;95399.34;;;14.99;94.08
15405;BME280;7801;48.124;11.590;2023-05-07T06:24:00;95399.31;;;15.16;93.82
15405;BME280;7801;48.124;11.590;2023-05-07T06:26:26;95398.00;;;15.22;93.33
15405;BME280;7801;48.124;11.590;2023-05-07T06:28:51;95395.47;;;15.34;92.66
15405;BME280;7801;48.124;11.590;2023-05-07T06:31:18;95400.47;;;15.36;92.78
15405;BME280;7801;48.124;11.590;2023-05-07T06:33:46;95390.81;;;15.52;91.53
15405;BME280;7801;48.124;11.590;2023-05-07T06:36:12;95388.88;;;15.61;90.79
15405;BME280;7801;48.124;11.590;2023-05-07T06:38:37;95394.81;;;15.75;90.32
15405;BME280;7801;48.124;11.590;2023-05-07T06:41:03;95396.13;;;15.90;89.65
15405;BME280;7801;48.124;11.590;2023-05-07T06:43:28;95403.03;;;15.91;90.64
15405;BME280;7801;48.124;11.590;2023-05-07T06:45:54;95406.69;;;16.07;90.35
15405;BME280;7801;48.124;11.590;2023-05-07T06:48:19;95414.53;;;16.12;89.46
15405;BME280;7801;48.124;11.590;2023-05-07T06:50:44;95412.06;;;16.28;87.58
15405;BME280;7801;48.124;11.590;2023-05-07T06:53:10;95408.22;;;16.38;86.90
15405;BME280;7801;48.124;11.590;2023-05-07T06:55:35;95409.69;;;16.47;86.20
15405;BME280;7801;48.124;11.590;2023-05-07T06:58:03;95410.69;;;16.64;85.17
15405;BME280;7801;48.124;11.590;2023-05-07T07:00:28;95403.16;;;16.78;84.61
15405;BME280;7801;48.124;11.590;2023-05-07T07:02:54;95407.31;;;16.88;84.65
15405;BME280;7801;48.124;11.590;2023-05-07T07:05:20;95414.16;;;16.97;84.19
15405;BME280;7801;48.124;11.590;2023-05-07T07:07:45;95414.75;;;17.03;84.38
15405;BME280;7801;48.124;11.590;2023-05-07T07:10:20;95410.84;;;17.12;84.77
15405;BME280;7801;48.124;11.590;2023-05-07T07:12:45;95415.09;;;17.13;84.73
15405;BME280;7801;48.124;11.590;2023-05-07T07:15:11;95407.75;;;17.23;83.55
15405;BME280;7801;48.124;11.590;2023-05-07T07:17:36;95416.25;;;17.25;83.08
15405;BME280;7801;48.124;11.590;2023-05-07T07:20:02;95413.56;;;17.25;83.70
15405;BME280;7801;48.124;11.590;2023-05-07T07:22:28;95410.88;;;17.37;81.65
15405;BME280;7801;48.124;11.590;2023-05-07T07:24:53;95401.50;;;17.43;81.03
15405;BME280;7801;48.124;11.590;2023-05-07T07:27:19;95408.31;;;17.40;81.65
15405;BME280;7801;48.124;11.590;2023-05-07T07:29:44;95410.22;;;17.52;80.81
15405;BME280;7801;48.124;11.590;2023-05-07T07:32:10;95409.66;;;17.59;80.40
15405;BME280;7801;48.124;11.590;2023-05-07T07:34:35;95406.88;;;17.67;80.66
15405;BME280;7801;48.124;11.590;2023-05-07T07:37:00;95416.94;;;17.70;80.64
15405;BME280;7801;48.124;11.590;2023-05-07T07:39:30;95408.00;;;17.78;80.71
15405;BME280;7801;48.124;11.590;2023-05-07T07:41:56;95413.03;;;17.80;81.89
15405;BME280;7801;48.124;11.590;2023-05-07T07:44:21;95415.06;;;17.83;81.72
15405;BME280;7801;48.124;11.590;2023-05-07T07:46:47;95418.63;;;17.87;79.96
15405;BME280;7801;48.124;11.590;2023-05-07T07:49:12;95420.97;;;17.89;79.06
15405;BME280;7801;48.124;11.590;2023-05-07T07:51:37;95415.16;;;17.87;79.25
15405;BME280;7801;48.124;11.590;2023-05-07T07:54:03;95419.84;;;17.90;80.05
15405;BME280;7801;48.124;11.590;2023-05-07T07:56:28;95417.94;;;18.02;79.85
15405;BME280;7801;48.124;11.590;2023-05-07T07:58:54;95418.84;;;18.06;79.18
15405;BME280;7801;48.124;11.590;2023-05-07T08:01:19;95421.75;;;18.01;80.59
15405;BME280;7801;48.124;11.590;2023-05-07T08:03:44;95418.91;;;18.10;79.56
15405;BME280;7801;48.124;11.590;2023-05-07T08:06:10;95418.47;;;18.20;85.85
15405;BME280;7801;48.124;11.590;2023-05-07T08:08:35;95415.94;;;18.39;86.60
15405;BME280;7801;48.124;11.590;2023-05-07T08:11:01;95423.53;;;18.49;85.73
15405;BME280;7801;48.124;11.590;2023-05-07T08:13:26;95418.50;;;18.48;81.24
15405;BME280;7801;48.124;11.590;2023-05-07T08:15:52;95418.41;;;18.44;81.61
15405;BME280;7801;48.124;11.590;2023-05-07T08:18:17;95418.59;;;18.51;80.07
15405;BME280;7801;48.124;11.590;2023-05-07T08:20:43;95417.75;;;18.35;80.17
15405;BME280;7801;48.124;11.590;2023-05-07T08:23:08;95423.09;;;18.47;77.99
15405;BME280;7801;48.124;11.590;2023-05-07T08:25:34;95423.38;;;18.58;79.32
15405;BME280;7801;48.124;11.590;2023-05-07T08:28:00;95424.41;;;18.53;77.76
15405;BME280;7801;48.124;11.590;2023-05-07T08:30:25;95431.16;;;18.60;76.72
15405;BME280;7801;48.124;11.590;2023-05-07T08:32:51;95422.06;;;18.64;76.39
15405;BME280;7801;48.124;11.590;2023-05-07T08:35:16;95426.31;;;18.65;74.57
15405;BME280;7801;48.124;11.590;2023-05-07T08:37:41;95424.31;;;18.62;74.26
15405;BME280;7801;48.124;11.590;2023-05-07T08:40:07;95426.88;;;18.59;74.98
15405;BME280;7801;48.124;11.590;2023-05-07T08:42:35;95429.78;;;18.66;72.63
15405;BME280;7801;48.124;11.590;2023-05-07T08:45:02;95430.22;;;18.68;73.74
15405;BME280;7801;48.124;11.590;2023-05-07T08:47:40;95427.03;;;18.78;74.71
15405;BME280;7801;48.124;11.590;2023-05-07T08:50:07;95431.16;;;18.87;73.90
15405;BME280;7801;48.124;11.590;2023-05-07T08:52:33;95427.41;;;18.92;75.13
15405;BME280;7801;48.124;11.590;2023-05-07T08:54:59;95432.84;;;18.80;73.97
15405;BME280;7801;48.124;11.590;2023-05-07T08:57:25;95430.31;;;18.99;72.81
15405;BME280;7801;48.124;11.590;2023-05-07T08:59:50;95433.88;;;18.75;72.54
15405;BME280;7801;48.124;11.590;2023-05-07T09:02:15;95432.00;;;18.92;73.29
15405;BME280;7801;48.124;11.590;2023-05-07T09:04:41;95435.13;;;18.94;73.41
15405;BME280;7801;48.124;11.590;2023-05-07T09:07:07;95435.75;;;18.87;72.95
15405;BME280;7801;48.124;11.590;2023-05-07T09:09:33;95438.94;;;18.93;73.66
15405;BME280;7801;48.124;11.590;2023-05-07T09:11:59;95447.75;;;19.05;72.89
15405;BME280;7801;48.124;11.590;2023-05-07T09:14:24;95434.78;;;18.95;73.40
15405;BME280;7801;48.124;11.590;2023-05-07T09:16:52;95437.59;;;18.99;71.05
15405;BME280;7801;48.124;11.590;2023-05-07T09:19:25;95434.56;;;19.16;71.88
15405;BME280;7801;48.124;11.590;2023-05-07T09:21:58;95439.38;;;19.22;71.62
15405;BME280;7801;48.124;11.590;2023-05-07T09:24:24;95431.62;;;19.05;71.67
15405;BME280;7801;48.124;11.590;2023-05-07T09:26:49;95425.12;;;19.22;72.04
15405;BME280;7801;48.124;11.590;2023-05-07T09:32:25;95413.37;;;19.58;70.44
15405;BME280;7801;48.124;11.590;2023-05-07T09:34:51;95418.19;;;19.37;71.66
15405;BME280;7801;48.124;11.590;2023-05-07T09:37:16;95422.97;;;19.43;72.50
15405;BME280;7801;48.124;11.590;2023-05-07T09:39:44;95418.94;;;19.65;70.19
15405;BME280;7801;48.124;11.590;2023-05-07T09:42:10;95422.25;;;19.74;68.60
15405;BME280;7801;48.124;11.590;2023-05-07T09:44:46;95416.12;;;19.77;69.96
15405;BME280;7801;48.124;11.590;2023-05-07T09:47:18;95427.69;;;19.94;68.49
15405;BME280;7801;48.124;11.590;2023-05-07T09:49:47;95419.53;;;19.74;68.64
15405;BME280;7801;48.124;11.590;2023-05-07T09:52:13;95413.59;;;19.84;68.57
15405;BME280;7801;48.124;11.590;2023-05-07T09:54:40;95421.22;;;19.98;65.59
15405;BME280;7801;48.124;11.590;2023-05-07T09:57:09;95411.25;;;19.83;64.58
15405;BME280;7801;48.124;11.590;2023-05-07T09:59:37;95408.12;;;19.81;65.75
15405;BME280;7801;48.124;11.590;2023-05-07T10:02:03;95417.44;;;19.83;65.66
15405;BME280;7801;48.124;11.590;2023-05-07T10:04:30;95412.22;;;19.90;66.28
15405;BME280;7801;48.124;11.590;2023-05-07T10:06:56;95408.09;;;19.97;66.39
15405;BME280;7801;48.124;11.590;2023-05-07T10:09:22;95403.84;;;19.96;65.90
15405;BME280;7801;48.124;11.590;2023-05-07T10:11:51;95415.66;;;20.07;63.90
15405;BME280;7801;48.124;11.590;2023-05-07T10:14:17;95424.03;;;19.86;63.91
15405;BME280;7801;48.124;11.590;2023-05-07T10:16:42;95424.69;;;19.99;63.41
15405;BME280;7801;48.124;11.590;2023-05-07T10:19:09;95426.25;;;20.00;63.72
15405;BME280;7801;48.124;11.590;2023-05-07T10:21:37;95423.47;;;19.96;63.04
15405;BME280;7801;48.124;11.590;2023-05-07T10:24:13;95414.22;;;19.78;64.31
15405;BME280;7801;48.124;11.590;2023-05-07T10:26:44;95418.13;;;19.80;64.75
15405;BME280;7801;48.124;11.590;2023-05-07T10:35:02;95415.28;;;19.73;63.46
15405;BME280;7801;48.124;11.590;2023-05-07T10:37:28;95428.13;;;19.80;62.65
15405;BME280;7801;48.124;11.590;2023-05-07T10:39:54;95422.28;;;19.94;61.64
15405;BME280;7801;48.124;11.590;2023-05-07T10:42:20;95426.19;;;19.96;61.10
15405;BME280;7801;48.124;11.590;2023-05-07T10:44:45;95423.13;;;19.98;60.60
15405;BME280;7801;48.124;11.590;2023-05-07T10:47:12;95421.31;;;20.02;61.59
15405;BME280;7801;48.124;11.590;2023-05-07T10:52:16;95418.44;;;20.10;60.94
15405;BME280;7801;48.124;11.590;2023-05-07T10:54:42;95419.13;;;20.07;60.95
15405;BME280;7801;48.124;11.590;2023-05-07T10:57:38;95421.22;;;20.14;60.26
15405;BME280;7801;48.124;11.590;2023-05-07T11:05:28;95423.47;;;20.12;62.97
15405;BME280;7801;48.124;11.590;2023-05-07T11:07:58;95418.94;;;20.16;62.02
15405;BME280;7801;48.124;11.590;2023-05-07T11:13:15;95431.00;;;20.22;64.14
15405;BME280;7801;48.124;11.590;2023-05-07T11:15:43;95416.66;;;20.18;65.04
15405;BME280;7801;48.124;11.590;2023-05-07T11:18:10;95408.22;;;20.19;65.08
15405;BME280;7801;48.124;11.590;2023-05-07T11:28:28;95402.28;;;20.30;66.18
15405;BME280;7801;48.124;11.590;2023-05-07T11:30:56;95406.91;;;20.29;66.54
15405;BME280;7801;48.124;11.590;2023-05-07T11:33:22;95405.50;;;20.35;65.27
15405;BME280;7801;48.124;11.590;2023-05-07T11:35:47;95408.00;;;20.44;64.00
15405;BME280;7801;48.124;11.590;2023-05-07T11:38:13;95401.12;;;20.46;63.67
15405;BME280;7801;48.124;11.590;2023-05-07T11:40:58;95407.94;;;20.40;64.90
15405;BME280;7801;48.124;11.590;2023-05-07T11:43:26;95395.59;;;20.39;65.46
15405;BME280;7801;48.124;11.590;2023-05-07T11:45:51;95391.06;;;20.43;65.77
15405;BME280;7801;48.124;11.590;2023-05-07T11:48:16;95396.72;;;20.38;66.09
15405;BME280;7801;48.124;11.590;2023-05-07T11:53:27;95404.03;;;20.38;66.25
15405;BME280;7801;48.124;11.590;2023-05-07T11:55:55;95399.13;;;20.43;66.07
15405;BME280;7801;48.124;11.590;2023-05-07T11:58:24;95399.13;;;20.43;65.65
15405;BME280;7801;48.124;11.590;2023-05-07T12:00:51;95404.03;;;20.38;65.97
15405;BME280;7801;48.124;11.590;2023-05-07T12:03:17;95397.31;;;20.47;65.67
15405;BME280;7801;48.124;11.590;2023-05-07T12:05:44;95408.34;;;20.42;65.24
15405;BME280;7801;48.124;11.590;2023-05-07T12:08:17;95400.97;;;20.39;65.36
15405;BME280;7801;48.124;11.590;2023-05-07T12:10:43;95405.50;;;20.35;65.86
15405;BME280;7801;48.124;11.590;2023-05-07T12:13:20;95396.38;;;20.40;65.44
15405;BME280;7801;48.124;11.590;2023-05-07T12:15:46;95398.34;;;20.43;65.46
15405;BME280;7801;48.124;11.590;2023-05-07T12:18:12;95385.66;;;20.43;64.66
15405;BME280;7801;48.124;11.590;2023-05-07T12:20:39;95386.88;;;20.46;65.39
15405;BME280;7801;48.124;11.590;2023-05-07T12:23:04;95387.56;;;20.81;63.43
15405;BME280;7801;48.124;11.590;2023-05-07T12:25:40;95392.63;;;20.64;63.76
15405;BME280;7801;48.124;11.590;2023-05-07T12:28:21;95387.50;;;20.58;63.20
15405;BME280;7801;48.124;11.590;2023-05-07T12:30:48;95389.00;;;20.56;63.26
15405;BME280;7801;48.124;11.590;2023-05-07T12:33:24;95379.06;;;20.60;62.29
15405;BME280;7801;48.124;11.590;2023-05-07T12:35:50;95376.00;;;20.62;62.45
15405;BME280;7801;48.124;11.590;2023-05-07T12:38:18;95379.28;;;20.71;62.02
15405;BME280;7801;48.124;11.590;2023-05-07T12:40:53;95373.09;;;20.70;62.12
15405;BME280;7801;48.124;11.590;2023-05-07T12:43:20;95368.69;;;20.62;63.06
15405;BME280;7801;48.124;11.590;2023-05-07T12:45:50;95372.31;;;20.70;62.16
15405;BME280;7801;48.124;11.590;2023-05-07T12:48:15;95369.19;;;20.68;61.91
15405;BME280;7801;48.124;11.590;2023-05-07T12:50:41;95368.91;;;20.73;60.98
15405;BME280;7801;48.124;11.590;2023-05-07T12:53:07;95360.69;;;20.66;60.90
15405;BME280;7801;48.124;11.590;2023-05-07T12:55:47;95359.19;;;20.68;61.76
15405;BME280;7801;48.124;11.590;2023-05-07T13:00:41;95357.63;;;20.67;59.97
15405;BME280;7801;48.124;11.590;2023-05-07T13:03:08;95360.69;;;20.66;60.72
15405;BME280;7801;48.124;11.590;2023-05-07T13:05:33;95367.28;;;20.68;59.51
15405;BME280;7801;48.124;11.590;2023-05-07T13:08:00;95363.44;;;20.69;59.59
15405;BME280;7801;48.124;11.590;2023-05-07T13:10:26;95366.84;;;20.66;59.73
15405;BME280;7801;48.124;11.590;2023-05-07T13:12:51;95372.25;;;20.66;59.38
15405;BME280;7801;48.124;11.590;2023-05-07T13:15:17;95373.75;;;20.64;57.34
15405;BME280;7801;48.124;11.590;2023-05-07T13:17:43;95368.06;;;20.69;57.22
15405;BME280;7801;48.124;11.590;2023-05-07T13:20:09;95368.50;;;20.71;55.61
15405;BME280;7801;48.124;11.590;2023-05-07T13:22:35;95365.72;;;20.67;54.88
15405;BME280;7801;48.124;11.590;2023-05-07T13:25:01;95374.66;;;20.71;54.54
15405;BME280;7801;48.124;11.590;2023-05-07T13:27:26;95365.66;;;20.64;55.13
15405;BME280;7801;48.124;11.590;2023-05-07T13:29:52;95374.59;;;20.68;54.66